sensor_id;sensor_type;location;lat;lon;timestamp;pressure;altitude;pressure_sealevel;temperature;humidity
68889;BME280;55930;47.412;8.790;2022-09-29T00:00:29;93179.84;;;6.53;100.00
68889;BME280;55930;47.412;8.790;2022-09-29T00:02:54;93170.47;;;6.46;100.00
68889;BME280;55930;47.412;8.790;2022-09-29T00:05:20;93169.78;;;6.51;100.00
68889;BME280;55930;47.412;8.790;2022-09-29T00:07:46;93162.03;;;6.42;100.00
68889;BME280;55930;47.412;8.790;2022-09-29T00:10:11;93167.16;;;6.51;100.00
68889;BME280;55930;47.412;8.790;2022-09-29T00:12:37;93159.75;;;6.56;100.00
68889;BME280;55930;47.412;8.790;2022-09-29T00:15:03;93162.31;;;6.44;100.00
68889;BME280;55930;47.412;8.790;2022-09-29T00:17:28;93161.25;;;6.36;100.00
68889;BME280;55930;47.412;8.790;2022-09-29T00:19:54;93166.81;;;6.38;100.00
68889;BME280;55930;47.412;8.790;2022-09-29T00:22:19;93167.09;;;6.46;100.00
68889;BME280;55930;47.412;8.790;2022-09-29T00:24:46;93176.66;;;6.43;100.00
68889;BME280;55930;47.412;8.790;2022-09-29T00:27:16;93170.47;;;6.46;100.00
68889;BME280;55930;47.412;8.790;2022-09-29T00:29:42;93160.84;;;6.43;100.00
68889;BME280;55930;47.412;8.790;2022-09-29T00:32:08;93156.72;;;6.37;100.00
68889;BME280;55930;47.412;8.790;2022-09-29T00:34:33;93165.09;;;6.35;100.00
68889;BME280;55930;47.412;8.790;2022-09-29T00:36:59;93157.03;;;6.44;100.00
68889;BME280;55930;47.412;8.790;2022-09-29T00:39:28;93154.66;;;6.46;100.00
68889;BME280;55930;47.412;8.790;2022-09-29T00:41:56;93151.75;;;6.44;100.00
68889;BME280;55930;47.412;8.790;2022-09-29T00:49:50;93151.31;;;6.46;100.00
68889;BME280;55930;47.412;8.790;2022-09-29T00:52:33;93150.72;;;6.36;100.00
68889;BME280;55930;47.412;8.790;2022-09-29T00:55:11;93148.91;;;6.48;100.00
68889;BME280;55930;47.412;8.790;2022-09-29T00:57:45;93145.81;;;6.49;100.00
68889;BME280;55930;47.412;8.790;2022-09-29T01:00:14;93135.97;;;6.44;100.00
68889;BME280;55930;47.412;8.790;2022-09-29T01:02:44;93132.28;;;6.36;100.00
68889;BME280;55930;47.412;8.790;2022-09-29T01:05:25;93122.56;;;6.48;100.00
68889;BME280;55930;47.412;8.790;2022-09-29T01:07:53;93128.09;;;6.50;100.00
68889;BME280;55930;47.412;8.790;2022-09-29T01:10:19;93123.72;;;6.41;100.00
68889;BME280;55930;47.412;8.790;2022-09-29T01:12:45;93117.25;;;6.42;100.00
68889;BME280;55930;47.412;8.790;2022-09-29T01:15:15;93108.66;;;6.47;100.00
68889;BME280;55930;47.412;8.790;2022-09-29T01:17:42;93123.00;;;6.41;100.00
68889;BME280;55930;47.412;8.790;2022-09-29T01:20:19;93123.75;;;6.47;100.00
68889;BME280;55930;47.412;8.790;2022-09-29T01:23:11;93118.44;;;6.41;100.00
68889;BME280;55930;47.412;8.790;2022-09-29T01:28:34;93106.25;;;6.44;100.00
68889;BME280;55930;47.412;8.790;2022-09-29T01:36:37;93113.44;;;6.43;100.00
68889;BME280;55930;47.412;8.790;2022-09-29T01:39:18;93112.09;;;6.53;100.00
68889;BME280;55930;47.412;8.790;2022-09-29T01:44:49;93109.66;;;6.50;100.00
68889;BME280;55930;47.412;8.790;2022-09-29T01:47:21;93114.97;;;6.56;100.00
68889;BME280;55930;47.412;8.790;2022-09-29T01:49:53;93113.59;;;6.66;100.00
68889;BME280;55930;47.412;8.790;2022-09-29T01:52:22;93114.06;;;6.64;100.00
68889;BME280;55930;47.412;8.790;2022-09-29T01:54:52;93116.97;;;6.66;100.00
68889;BME280;55930;47.412;8.790;2022-09-29T01:59:57;93117.09;;;6.51;100.00
68889;BME280;55930;47.412;8.790;2022-09-29T02:02:30;93116.94;;;6.61;100.00
68889;BME280;55930;47.412;8.790;2022-09-29T02:05:03;93117.44;;;6.65;100.00
68889;BME280;55930;47.412;8.790;2022-09-29T02:07:37;93103.50;;;6.59;100.00
68889;BME280;55930;47.412;8.790;2022-09-29T02:10:09;93100.56;;;6.51;100.00
68889;BME280;55930;47.412;8.790;2022-09-29T02:12:38;93108.97;;;6.55;100.00
68889;BME280;55930;47.412;8.790;2022-09-29T02:15:13;93116.22;;;6.60;100.00
68889;BME280;55930;47.412;8.790;2022-09-29T02:17:43;93112.09;;;6.53;100.00
68889;BME280;55930;47.412;8.790;2022-09-29T02:20:12;93108.25;;;6.54;100.00
68889;BME280;55930;47.412;8.790;2022-09-29T02:22:39;93113.78;;;6.57;100.00
68889;BME280;55930;47.412;8.790;2022-09-29T02:25:07;93105.94;;;6.62;100.00
68889;BME280;55930;47.412;8.790;2022-09-29T02:27:33;93106.56;;;6.51;100.00
68889;BME280;55930;47.412;8.790;2022-09-29T02:29:59;93104.19;;;6.53;100.00
68889;BME280;55930;47.412;8.790;2022-09-29T02:32:25;93107.34;;;6.63;100.00
68889;BME280;55930;47.412;8.790;2022-09-29T02:34:52;93108.72;;;6.53;100.00
68889;BME280;55930;47.412;8.790;2022-09-29T02:37:31;93105.38;;;6.52;100.00
68889;BME280;55930;47.412;8.790;2022-09-29T02:53:31;93101.41;;;6.68;100.00
68889;BME280;55930;47.412;8.790;2022-09-29T02:58:41;93096.16;;;6.68;100.00
68889;BME280;55930;47.412;8.790;2022-09-29T03:01:11;93093.72;;;6.65;100.00
68889;BME280;55930;47.412;8.790;2022-09-29T03:03:39;93100.28;;;6.43;100.00
68889;BME280;55930;47.412;8.790;2022-09-29T03:06:05;93092.75;;;6.62;100.00
68889;BME280;55930;47.412;8.790;2022-09-29T03:08:31;93091.09;;;6.65;100.00
68889;BME280;55930;47.412;8.790;2022-09-29T03:10:57;93099.16;;;6.56;100.00
68889;BME280;55930;47.412;8.790;2022-09-29T03:13:23;93089.88;;;6.60;100.00
68889;BME280;55930;47.412;8.790;2022-09-29T03:15:48;93085.22;;;6.49;100.00
68889;BME280;55930;47.412;8.790;2022-09-29T03:18:14;93083.75;;;6.43;100.00
68889;BME280;55930;47.412;8.790;2022-09-29T03:20:39;93078.56;;;6.54;100.00
68889;BME280;55930;47.412;8.790;2022-09-29T03:23:05;93078.88;;;6.62;100.00
68889;BME280;55930;47.412;8.790;2022-09-29T03:25:30;93074.06;;;6.60;100.00
68889;BME280;55930;47.412;8.790;2022-09-29T03:27:55;93077.66;;;6.63;100.00
68889;BME280;55930;47.412;8.790;2022-09-29T03:30:21;93076.53;;;6.69;100.00
68889;BME280;55930;47.412;8.790;2022-09-29T03:32:47;93080.53;;;6.65;100.00
68889;BME280;55930;47.412;8.790;2022-09-29T03:35:13;93074.38;;;6.73;100.00
68889;BME280;55930;47.412;8.790;2022-09-29T03:37:38;93070.34;;;6.78;100.00
68889;BME280;55930;47.412;8.790;2022-09-29T03:40:04;93074.84;;;6.72;100.00
68889;BME280;55930;47.412;8.790;2022-09-29T03:42:30;93073.00;;;6.78;100.00
68889;BME280;55930;47.412;8.790;2022-09-29T03:44:56;93063.19;;;6.84;100.00
68889;BME280;55930;47.412;8.790;2022-09-29T03:47:24;93065.50;;;6.71;100.00
68889;BME280;55930;47.412;8.790;2022-09-29T03:49:52;93060.22;;;6.71;100.00
68889;BME280;55930;47.412;8.790;2022-09-29T03:52:17;93055.22;;;6.73;100.00
68889;BME280;55930;47.412;8.790;2022-09-29T03:54:43;93058.59;;;6.79;100.00
68889;BME280;55930;47.412;8.790;2022-09-29T03:57:09;93065.31;;;6.80;100.00
68889;BME280;55930;47.412;8.790;2022-09-29T03:59:34;93064.13;;;6.81;100.00
68889;BME280;55930;47.412;8.790;2022-09-29T04:02:02;93067.47;;;6.76;100.00
68889;BME280;55930;47.412;8.790;2022-09-29T04:04:27;93057.63;;;6.76;100.00
68889;BME280;55930;47.412;8.790;2022-09-29T04:06:52;93064.66;;;6.85;100.00
68889;BME280;55930;47.412;8.790;2022-09-29T04:09:18;93069.63;;;6.77;100.00
68889;BME280;55930;47.412;8.790;2022-09-29T04:11:43;93065.31;;;6.80;100.00
68889;BME280;55930;47.412;8.790;2022-09-29T04:14:09;93068.66;;;6.80;100.00
68889;BME280;55930;47.412;8.790;2022-09-29T04:16:34;93075.13;;;6.79;100.00
68889;BME280;55930;47.412;8.790;2022-09-29T04:18:59;93076.13;;;6.82;100.00
68889;BME280;55930;47.412;8.790;2022-09-29T04:21:27;93074.66;;;6.81;100.00
68889;BME280;55930;47.412;8.790;2022-09-29T04:23:52;93076.13;;;6.87;100.00
68889;BME280;55930;47.412;8.790;2022-09-29T04:26:18;93081.19;;;6.85;100.00
68889;BME280;55930;47.412;8.790;2022-09-29T04:28:45;93080.22;;;6.88;100.00
68889;BME280;55930;47.412;8.790;2022-09-29T04:31:10;93079.72;;;6.84;100.00
68889;BME280;55930;47.412;8.790;2022-09-29T04:33:36;93086.44;;;6.85;100.00
68889;BME280;55930;47.412;8.790;2022-09-29T04:36:03;93085.22;;;6.86;100.00
68889;BME280;55930;47.412;8.790;2022-09-29T04:38:29;93092.44;;;6.86;100.00
68889;BME280;55930;47.412;8.790;2022-09-29T04:40:55;93084.03;;;6.82;100.00
68889;BME280;55930;47.412;8.790;2022-09-29T04:43:20;93084.31;;;6.89;100.00
68889;BME280;55930;47.412;8.790;2022-09-29T04:45:46;93084.78;;;6.88;100.00
68889;BME280;55930;47.412;8.790;2022-09-29T04:48:11;93086.91;;;6.84;100.00
68889;BME280;55930;47.412;8.790;2022-09-29T04:50:39;93093.19;;;6.92;100.00
68889;BME280;55930;47.412;8.790;2022-09-29T04:53:07;93094.09;;;6.83;100.00
68889;BME280;55930;47.412;8.790;2022-09-29T04:55:32;93093.63;;;6.85;100.00
68889;BME280;55930;47.412;8.790;2022-09-29T04:57:58;93096.00;;;6.83;100.00
68889;BME280;55930;47.412;8.790;2022-09-29T05:00:26;93096.47;;;6.81;100.00
68889;BME280;55930;47.412;8.790;2022-09-29T05:02:51;93093.88;;;6.87;100.00
68889;BME280;55930;47.412;8.790;2022-09-29T05:05:17;93095.59;;;6.96;100.00
68889;BME280;55930;47.412;8.790;2022-09-29T05:07:42;93103.03;;;6.97;100.00
68889;BME280;55930;47.412;8.790;2022-09-29T05:10:09;93098.22;;;6.96;100.00
68889;BME280;55930;47.412;8.790;2022-09-29T05:12:34;93104.06;;;7.05;100.00
68889;BME280;55930;47.412;8.790;2022-09-29T05:15:00;93098.97;;;6.96;100.00
68889;BME280;55930;47.412;8.790;2022-09-29T05:17:26;93101.38;;;7.00;100.00
68889;BME280;55930;47.412;8.790;2022-09-29T05:19:51;93102.03;;;6.89;100.00
68889;BME280;55930;47.412;8.790;2022-09-29T05:22:19;93104.78;;;6.69;100.00
68889;BME280;55930;47.412;8.790;2022-09-29T05:24:50;93111.06;;;6.77;100.00
68889;BME280;55930;47.412;8.790;2022-09-29T05:27:16;93104.91;;;6.85;100.00
68889;BME280;55930;47.412;8.790;2022-09-29T05:29:41;93110.41;;;6.87;100.00
68889;BME280;55930;47.412;8.790;2022-09-29T05:32:09;93110.91;;;6.91;100.00
68889;BME280;55930;47.412;8.790;2022-09-29T05:34:34;93111.38;;;6.90;100.00
68889;BME280;55930;47.412;8.790;2022-09-29T05:37:00;93113.69;;;6.77;100.00
68889;BME280;55930;47.412;8.790;2022-09-29T05:39:25;93114.88;;;6.76;100.00
68889;BME280;55930;47.412;8.790;2022-09-29T05:41:50;93118.53;;;6.84;100.00
68889;BME280;55930;47.412;8.790;2022-09-29T05:44:16;93116.66;;;6.90;100.00
68889;BME280;55930;47.412;8.790;2022-09-29T05:46:42;93117.13;;;6.88;100.00
68889;BME280;55930;47.412;8.790;2022-09-29T05:49:07;93113.75;;;6.88;100.00
68889;BME280;55930;47.412;8.790;2022-09-29T05:51:32;93115.16;;;6.78;100.00
68889;BME280;55930;47.412;8.790;2022-09-29T05:53:58;93121.19;;;6.84;100.00
68889;BME280;55930;47.412;8.790;2022-09-29T05:56:25;93119.56;;;6.92;100.00
68889;BME280;55930;47.412;8.790;2022-09-29T05:58:52;93116.50;;;7.05;100.00
68889;BME280;55930;47.412;8.790;2022-09-29T06:01:23;93119.16;;;7.05;100.00
68889;BME280;55930;47.412;8.790;2022-09-29T06:03:49;93129.22;;;7.06;100.00
68889;BME280;55930;47.412;8.790;2022-09-29T06:06:19;93127.81;;;7.11;100.00
68889;BME280;55930;47.412;8.790;2022-09-29T06:08:48;93126.34;;;7.04;100.00
68889;BME280;55930;47.412;8.790;2022-09-29T06:11:19;93125.94;;;7.17;100.00
68889;BME280;55930;47.412;8.790;2022-09-29T06:13:47;93134.06;;;7.13;100.00
68889;BME280;55930;47.412;8.790;2022-09-29T06:16:14;93129.78;;;7.21;100.00
68889;BME280;55930;47.412;8.790;2022-09-29T06:18:40;93130.59;;;7.33;100.00
68889;BME280;55930;47.412;8.790;2022-09-29T06:21:08;93127.28;;;7.44;100.00
68889;BME280;55930;47.412;8.790;2022-09-29T06:23:35;93125.59;;;7.41;100.00
68889;BME280;55930;47.412;8.790;2022-09-29T06:26:02;93123.44;;;7.45;100.00
68889;BME280;55930;47.412;8.790;2022-09-29T06:28:29;93133.06;;;7.48;100.00
68889;BME280;55930;47.412;8.790;2022-09-29T06:30:59;93132.25;;;7.30;100.00
68889;BME280;55930;47.412;8.790;2022-09-29T06:33:28;93130.53;;;7.22;100.00
68889;BME280;55930;47.412;8.790;2022-09-29T06:35:55;93123.81;;;7.26;100.00
68889;BME280;55930;47.412;8.790;2022-09-29T06:38:39;93126.03;;;7.34;100.00
68889;BME280;55930;47.412;8.790;2022-09-29T06:41:04;93133.50;;;7.41;100.00
68889;BME280;55930;47.412;8.790;2022-09-29T06:43:30;93124.22;;;7.56;100.00
68889;BME280;55930;47.412;8.790;2022-09-29T06:45:55;93127.66;;;7.74;100.00
68889;BME280;55930;47.412;8.790;2022-09-29T06:48:24;93122.13;;;7.77;100.00
68889;BME280;55930;47.412;8.790;2022-09-29T06:50:51;93126.22;;;7.84;100.00
68889;BME280;55930;47.412;8.790;2022-09-29T06:53:17;93126.22;;;7.78;100.00
68889;BME280;55930;47.412;8.790;2022-09-29T06:55:52;93124.78;;;7.83;100.00
68889;BME280;55930;47.412;8.790;2022-09-29T06:58:18;93132.69;;;7.77;100.00
68889;BME280;55930;47.412;8.790;2022-09-29T07:00:43;93128.41;;;7.80;100.00
68889;BME280;55930;47.412;8.790;2022-09-29T07:03:08;93130.78;;;7.78;100.00
68889;BME280;55930;47.412;8.790;2022-09-29T07:05:34;93129.66;;;8.06;100.00
68889;BME280;55930;47.412;8.790;2022-09-29T07:08:01;93131.34;;;8.10;100.00
68889;BME280;55930;47.412;8.790;2022-09-29T07:10:32;93137.84;;;8.08;100.00
68889;BME280;55930;47.412;8.790;2022-09-29T07:12:57;93136.16;;;8.11;100.00
68889;BME280;55930;47.412;8.790;2022-09-29T07:15:27;93133.28;;;8.15;100.00
68889;BME280;55930;47.412;8.790;2022-09-29T07:17:59;93141.44;;;8.11;100.00
68889;BME280;55930;47.412;8.790;2022-09-29T07:20:29;93144.09;;;8.11;100.00
68889;BME280;55930;47.412;8.790;2022-09-29T07:22:56;93149.38;;;8.11;100.00
68889;BME280;55930;47.412;8.790;2022-09-29T07:25:23;93148.38;;;8.03;100.00
68889;BME280;55930;47.412;8.790;2022-09-29T07:27:52;93146.94;;;8.07;100.00
68889;BME280;55930;47.412;8.790;2022-09-29T07:30:17;93151.75;;;8.09;100.00
68889;BME280;55930;47.412;8.790;2022-09-29T07:32:43;93155.16;;;8.21;100.00
68889;BME280;55930;47.412;8.790;2022-09-29T07:35:11;93151.75;;;8.15;100.00
68889;BME280;55930;47.412;8.790;2022-09-29T07:37:39;93153.00;;;8.30;100.00
68889;BME280;55930;47.412;8.790;2022-09-29T07:40:05;93157.88;;;8.37;100.00
68889;BME280;55930;47.412;8.790;2022-09-29T07:42:30;93160.78;;;8.45;100.00
68889;BME280;55930;47.412;8.790;2022-09-29T07:45:08;93158.28;;;8.30;100.00
68889;BME280;55930;47.412;8.790;2022-09-29T07:47:34;93166.28;;;8.41;100.00
68889;BME280;55930;47.412;8.790;2022-09-29T07:49:59;93166.53;;;8.43;100.00
68889;BME280;55930;47.412;8.790;2022-09-29T07:52:29;93163.69;;;8.69;100.00
68889;BME280;55930;47.412;8.790;2022-09-29T07:54:55;93171.13;;;8.82;100.00
68889;BME280;55930;47.412;8.790;2022-09-29T07:57:22;93170.41;;;9.09;100.00
68889;BME280;55930;47.412;8.790;2022-09-29T07:59:48;93170.88;;;9.19;100.00
68889;BME280;55930;47.412;8.790;2022-09-29T08:02:13;93171.38;;;9.17;100.00
68889;BME280;55930;47.412;8.790;2022-09-29T08:04:39;93172.56;;;9.16;100.00
68889;BME280;55930;47.412;8.790;2022-09-29T08:07:04;93174.47;;;9.33;100.00
68889;BME280;55930;47.412;8.790;2022-09-29T08:09:30;93173.94;;;9.51;99.16
68889;BME280;55930;47.412;8.790;2022-09-29T08:11:55;93182.53;;;9.74;98.99
68889;BME280;55930;47.412;8.790;2022-09-29T08:14:20;93183.50;;;9.87;98.78
68889;BME280;55930;47.412;8.790;2022-09-29T08:16:47;93183.22;;;9.91;95.82
68889;BME280;55930;47.412;8.790;2022-09-29T08:19:12;93183.69;;;9.95;97.18
68889;BME280;55930;47.412;8.790;2022-09-29T08:21:40;93187.06;;;9.95;97.34
68889;BME280;55930;47.412;8.790;2022-09-29T08:24:06;93187.38;;;9.81;96.10
68889;BME280;55930;47.412;8.790;2022-09-29T08:26:34;93186.22;;;9.43;97.53
68889;BME280;55930;47.412;8.790;2022-09-29T08:29:03;93196.34;;;9.55;96.45
68889;BME280;55930;47.412;8.790;2022-09-29T08:31:28;93197.28;;;9.64;99.11
68889;BME280;55930;47.412;8.790;2022-09-29T08:33:56;93200.38;;;9.73;100.00
68889;BME280;55930;47.412;8.790;2022-09-29T08:36:25;93201.56;;;9.89;97.25
68889;BME280;55930;47.412;8.790;2022-09-29T08:38:55;93207.03;;;10.02;98.14
68889;BME280;55930;47.412;8.790;2022-09-29T08:43:56;93205.03;;;10.25;93.74
68889;BME280;55930;47.412;8.790;2022-09-29T08:46:29;93211.97;;;10.39;94.69
68889;BME280;55930;47.412;8.790;2022-09-29T08:48:58;93215.81;;;10.44;94.90
68889;BME280;55930;47.412;8.790;2022-09-29T08:51:35;93207.81;;;10.90;96.30
68889;BME280;55930;47.412;8.790;2022-09-29T08:54:10;93215.13;;;10.79;92.71
68889;BME280;55930;47.412;8.790;2022-09-29T08:56:37;93216.41;;;10.66;93.42
68889;BME280;55930;47.412;8.790;2022-09-29T08:59:03;93220.94;;;10.77;94.15
68889;BME280;55930;47.412;8.790;2022-09-29T09:12:55;93236.56;;;11.76;85.82
68889;BME280;55930;47.412;8.790;2022-09-29T09:18:09;93238.13;;;11.90;85.86
68889;BME280;55930;47.412;8.790;2022-09-29T09:23:54;93242.63;;;11.17;86.05
68889;BME280;55930;47.412;8.790;2022-09-29T09:26:35;93237.06;;;11.15;86.92
68889;BME280;55930;47.412;8.790;2022-09-29T09:29:41;93239.28;;;11.70;87.52
68889;BME280;55930;47.412;8.790;2022-09-29T09:32:13;93238.22;;;12.27;84.87
68889;BME280;55930;47.412;8.790;2022-09-29T09:35:01;93242.69;;;11.95;85.06
68889;BME280;55930;47.412;8.790;2022-09-29T09:37:38;93239.13;;;11.87;84.87
68889;BME280;55930;47.412;8.790;2022-09-29T09:40:12;93247.53;;;11.91;81.70
68889;BME280;55930;47.412;8.790;2022-09-29T09:42:59;93245.16;;;11.58;81.44
68889;BME280;55930;47.412;8.790;2022-09-29T09:45:33;93246.41;;;11.57;81.07
68889;BME280;55930;47.412;8.790;2022-09-29T09:48:12;93249.72;;;11.63;86.62
68889;BME280;55930;47.412;8.790;2022-09-29T09:50:40;93244.44;;;11.33;88.11
68889;BME280;55930;47.412;8.790;2022-09-29T09:55:41;93242.16;;;11.42;84.51
68889;BME280;55930;47.412;8.790;2022-09-29T09:58:26;93240.22;;;11.73;85.30
68889;BME280;55930;47.412;8.790;2022-09-29T10:01:02;93249.63;;;11.98;82.59
68889;BME280;55930;47.412;8.790;2022-09-29T10:03:29;93250.66;;;11.95;83.06
68889;BME280;55930;47.412;8.790;2022-09-29T10:05:55;93253.34;;;11.89;84.35
68889;BME280;55930;47.412;8.790;2022-09-29T10:08:27;93251.03;;;11.50;85.51
68889;BME280;55930;47.412;8.790;2022-09-29T10:10:54;93250.81;;;12.03;84.98
68889;BME280;55930;47.412;8.790;2022-09-29T10:13:23;93249.53;;;12.09;82.19
68889;BME280;55930;47.412;8.790;2022-09-29T10:18:35;93246.22;;;12.84;80.92
68889;BME280;55930;47.412;8.790;2022-09-29T10:21:02;93244.72;;;13.39;79.54
68889;BME280;55930;47.412;8.790;2022-09-29T10:23:33;93246.97;;;14.33;75.45
68889;BME280;55930;47.412;8.790;2022-09-29T10:26:19;93234.28;;;14.12;73.62
68889;BME280;55930;47.412;8.790;2022-09-29T10:36:33;93245.22;;;15.29;72.36
68889;BME280;55930;47.412;8.790;2022-09-29T10:39:30;93249.63;;;13.93;71.06
68889;BME280;55930;47.412;8.790;2022-09-29T10:41:56;93257.44;;;12.77;75.39
68889;BME280;55930;47.412;8.790;2022-09-29T10:44:21;93249.97;;;13.45;79.29
68889;BME280;55930;47.412;8.790;2022-09-29T10:46:51;93257.38;;;12.63;79.57
68889;BME280;55930;47.412;8.790;2022-09-29T10:49:19;93253.13;;;12.92;78.78
68889;BME280;55930;47.412;8.790;2022-09-29T10:52:13;93255.06;;;12.36;81.78
68889;BME280;55930;47.412;8.790;2022-09-29T10:54:53;93259.28;;;12.25;80.02
68889;BME280;55930;47.412;8.790;2022-09-29T10:57:25;93254.34;;;12.11;86.57
68889;BME280;55930;47.412;8.790;2022-09-29T10:59:52;93260.63;;;11.89;84.03
68889;BME280;55930;47.412;8.790;2022-09-29T11:04:46;93259.72;;;11.81;83.98
68889;BME280;55930;47.412;8.790;2022-09-29T11:07:12;93264.34;;;12.05;84.00
68889;BME280;55930;47.412;8.790;2022-09-29T11:09:39;93265.09;;;11.75;86.05
68889;BME280;55930;47.412;8.790;2022-09-29T11:14:47;93265.97;;;12.08;86.59
68889;BME280;55930;47.412;8.790;2022-09-29T11:17:27;93262.91;;;12.04;84.29
68889;BME280;55930;47.412;8.790;2022-09-29T11:19:56;93265.97;;;12.32;83.93
68889;BME280;55930;47.412;8.790;2022-09-29T11:45:01;93279.50;;;11.50;87.10
68889;BME280;55930;47.412;8.790;2022-09-29T12:00:40;93269.66;;;12.48;80.32
68889;BME280;55930;47.412;8.790;2022-09-29T12:17:40;93270.47;;;12.18;80.72
68889;BME280;55930;47.412;8.790;2022-09-29T12:20:20;93266.72;;;12.51;77.72
68889;BME280;55930;47.412;8.790;2022-09-29T12:22:49;93258.09;;;12.64;77.78
68889;BME280;55930;47.412;8.790;2022-09-29T12:25:17;93259.94;;;12.69;76.43
68889;BME280;55930;47.412;8.790;2022-09-29T12:27:48;93254.13;;;12.89;77.02
68889;BME280;55930;47.412;8.790;2022-09-29T12:33:22;93243.44;;;13.59;75.70
68889;BME280;55930;47.412;8.790;2022-09-29T12:38:31;93239.59;;;14.39;70.16
68889;BME280;55930;47.412;8.790;2022-09-29T12:41:16;93244.72;;;13.97;69.62
68889;BME280;55930;47.412;8.790;2022-09-29T12:46:37;93251.88;;;13.76;70.11
68889;BME280;55930;47.412;8.790;2022-09-29T12:51:53;93258.78;;;13.02;74.54
68889;BME280;55930;47.412;8.790;2022-09-29T12:54:53;93262.41;;;12.67;75.93
68889;BME280;55930;47.412;8.790;2022-09-29T12:57:30;93253.38;;;13.26;76.13
68889;BME280;55930;47.412;8.790;2022-09-29T13:08:28;93260.63;;;12.32;77.80
68889;BME280;55930;47.412;8.790;2022-09-29T13:12:14;93262.31;;;12.35;79.56
68889;BME280;55930;47.412;8.790;2022-09-29T13:17:30;93263.06;;;11.87;80.30
68889;BME280;55930;47.412;8.790;2022-09-29T13:20:51;93266.78;;;11.43;80.61
68889;BME280;55930;47.412;8.790;2022-09-29T13:28:55;93274.38;;;11.58;83.38
68889;BME280;55930;47.412;8.790;2022-09-29T13:31:28;93266.28;;;11.44;83.64
68889;BME280;55930;47.412;8.790;2022-09-29T13:34:00;93269.44;;;11.43;84.75
68889;BME280;55930;47.412;8.790;2022-09-29T13:36:29;93266.41;;;11.28;83.85
68889;BME280;55930;47.412;8.790;2022-09-29T13:39:02;93267.78;;;11.04;84.14
68889;BME280;55930;47.412;8.790;2022-09-29T13:41:34;93266.88;;;11.32;82.25
68889;BME280;55930;47.412;8.790;2022-09-29T13:44:18;93266.34;;;11.39;83.46
68889;BME280;55930;47.412;8.790;2022-09-29T13:46:44;93272.94;;;11.27;82.97
68889;BME280;55930;47.412;8.790;2022-09-29T13:49:26;93278.25;;;11.27;84.05
68889;BME280;55930;47.412;8.790;2022-09-29T13:54:41;93275.88;;;11.18;85.55
68889;BME280;55930;47.412;8.790;2022-09-29T13:57:21;93277.84;;;11.17;90.34
68889;BME280;55930;47.412;8.790;2022-09-29T14:02:37;93282.72;;;11.07;91.38
68889;BME280;55930;47.412;8.790;2022-09-29T14:05:34;93282.53;;;10.94;95.67
68889;BME280;55930;47.412;8.790;2022-09-29T14:18:35;93285.50;;;10.85;100.00
68889;BME280;55930;47.412;8.790;2022-09-29T14:21:07;93290.28;;;10.92;99.27
68889;BME280;55930;47.412;8.790;2022-09-29T14:23:46;93290.50;;;11.00;99.24
68889;BME280;55930;47.412;8.790;2022-09-29T14:29:34;93296.81;;;11.27;98.94
68889;BME280;55930;47.412;8.790;2022-09-29T14:32:01;93294.94;;;11.22;98.74
68889;BME280;55930;47.412;8.790;2022-09-29T14:34:30;93296.69;;;11.13;100.00
68889;BME280;55930;47.412;8.790;2022-09-29T14:36:59;93303.91;;;11.13;99.45
68889;BME280;55930;47.412;8.790;2022-09-29T14:39:27;93300.84;;;11.03;96.80
68889;BME280;55930;47.412;8.790;2022-09-29T14:41:55;93300.06;;;11.14;96.45
68889;BME280;55930;47.412;8.790;2022-09-29T14:44:49;93298.81;;;11.21;92.01
68889;BME280;55930;47.412;8.790;2022-09-29T14:47:39;93302.38;;;11.29;92.63
68889;BME280;55930;47.412;8.790;2022-09-29T14:50:43;93296.44;;;11.11;89.43
68889;BME280;55930;47.412;8.790;2022-09-29T14:56:37;93315.78;;;11.06;88.60
68889;BME280;55930;47.412;8.790;2022-09-29T15:02:23;93313.38;;;11.08;89.87
68889;BME280;55930;47.412;8.790;2022-09-29T15:04:53;93316.34;;;10.88;90.75
68889;BME280;55930;47.412;8.790;2022-09-29T15:07:25;93311.59;;;10.70;92.08
68889;BME280;55930;47.412;8.790;2022-09-29T15:09:54;93316.41;;;10.77;93.22
68889;BME280;55930;47.412;8.790;2022-09-29T15:12:23;93308.97;;;10.70;99.93
68889;BME280;55930;47.412;8.790;2022-09-29T15:14:50;93315.50;;;10.63;100.00
68889;BME280;55930;47.412;8.790;2022-09-29T15:25:35;93314.34;;;10.53;100.00
68889;BME280;55930;47.412;8.790;2022-09-29T15:33:43;93311.69;;;10.48;100.00
68889;BME280;55930;47.412;8.790;2022-09-29T15:36:26;93316.06;;;10.40;100.00
68889;BME280;55930;47.412;8.790;2022-09-29T15:39:46;93320.13;;;10.52;100.00
68889;BME280;55930;47.412;8.790;2022-09-29T15:42:29;93319.13;;;10.66;100.00
68889;BME280;55930;47.412;8.790;2022-09-29T15:45:15;93323.22;;;10.67;100.00
68889;BME280;55930;47.412;8.790;2022-09-29T15:47:41;93329.53;;;10.53;100.00
68889;BME280;55930;47.412;8.790;2022-09-29T15:50:23;93338.66;;;10.57;100.00
68889;BME280;55930;47.412;8.790;2022-09-29T15:52:53;93333.41;;;10.41;100.00
68889;BME280;55930;47.412;8.790;2022-09-29T15:55:23;93341.13;;;10.44;100.00
68889;BME280;55930;47.412;8.790;2022-09-29T15:57:50;93347.41;;;10.35;100.00
68889;BME280;55930;47.412;8.790;2022-09-29T16:05:28;93354.16;;;10.14;100.00
68889;BME280;55930;47.412;8.790;2022-09-29T16:10:50;93361.19;;;9.95;100.00
68889;BME280;55930;47.412;8.790;2022-09-29T16:13:34;93360.44;;;10.00;100.00
68889;BME280;55930;47.412;8.790;2022-09-29T16:16:09;93362.16;;;10.03;100.00
68889;BME280;55930;47.412;8.790;2022-09-29T16:19:10;93365.50;;;9.92;100.00
68889;BME280;55930;47.412;8.790;2022-09-29T16:21:36;93363.81;;;9.84;100.00
68889;BME280;55930;47.412;8.790;2022-09-29T16:26:48;93364.56;;;9.79;100.00
68889;BME280;55930;47.412;8.790;2022-09-29T16:35:36;93375.63;;;9.55;100.00
68889;BME280;55930;47.412;8.790;2022-09-29T16:38:17;93373.19;;;9.51;100.00
68889;BME280;55930;47.412;8.790;2022-09-29T16:40:46;93375.41;;;9.64;100.00
68889;BME280;55930;47.412;8.790;2022-09-29T16:43:25;93368.41;;;9.61;100.00
68889;BME280;55930;47.412;8.790;2022-09-29T16:45:58;93370.59;;;9.57;100.00